createdAt,value
2019-01-22T00:00:00.505Z,13.23
2019-01-22T00:02:27.387Z,15.50
2019-01-22T00:04:54.071Z,14.33
2019-01-22T00:07:20.353Z,14.00
2019-01-22T00:09:46.650Z,13.50
2019-01-22T00:12:13.264Z,14.00
2019-01-22T00:14:39.906Z,15.00
2019-01-22T00:17:06.530Z,15.17
2019-01-22T00:19:33.201Z,14.10
2019-01-22T00:21:59.821Z,15.20
2019-01-22T00:24:26.677Z,15.50
2019-01-22T00:26:53.288Z,14.60
2019-01-22T00:29:20.113Z,14.27
2019-01-22T00:31:46.375Z,14.70
2019-01-22T00:34:12.993Z,14.97
2019-01-22T00:36:39.532Z,15.53
2019-01-22T00:39:06.244Z,15.23
2019-01-22T00:41:33.205Z,13.13
2019-01-22T00:44:00.605Z,15.63
2019-01-22T00:46:26.891Z,15.13
2019-01-22T00:48:53.518Z,15.73
2019-01-22T00:51:20.168Z,13.00
2019-01-22T00:53:46.794Z,14.00
2019-01-22T00:56:13.083Z,13.43
2019-01-22T00:58:40.085Z,16.07
2019-01-22T01:01:06.926Z,14.43
2019-01-22T01:03:33.558Z,15.57
2019-01-22T01:05:59.850Z,15.03
2019-01-22T01:08:26.114Z,16.03
2019-01-22T01:10:52.405Z,16.53
2019-01-22T01:13:18.670Z,15.67
2019-01-22T01:15:45.518Z,14.60
2019-01-22T01:18:12.202Z,15.30
2019-01-22T01:20:38.793Z,15.67
2019-01-22T01:23:05.050Z,13.17
2019-01-22T01:25:31.354Z,16.13
2019-01-22T01:27:57.969Z,13.57
2019-01-22T01:30:24.290Z,14.63
2019-01-22T01:32:51.321Z,14.20
2019-01-22T01:35:17.590Z,14.27
2019-01-22T01:37:44.197Z,15.07
2019-01-22T01:40:12.026Z,14.83
2019-01-22T01:42:38.405Z,14.33
2019-01-22T01:45:05.842Z,13.40
2019-01-22T01:47:32.485Z,14.03
2019-01-22T01:49:59.401Z,15.17
2019-01-22T01:52:26.056Z,14.03
2019-01-22T01:54:52.742Z,14.10
2019-01-22T01:57:19.045Z,14.00
2019-01-22T01:59:45.305Z,15.73
2019-01-22T02:02:11.598Z,13.87
2019-01-22T02:04:37.894Z,13.83
2019-01-22T02:07:04.669Z,13.50
2019-01-22T02:09:31.292Z,15.07
2019-01-22T02:11:57.965Z,14.70
2019-01-22T02:14:26.401Z,15.57
2019-01-22T02:16:54.949Z,15.27
2019-01-22T02:19:28.073Z,14.93
2019-01-22T02:22:02.821Z,14.17
2019-01-22T02:24:34.193Z,14.40
2019-01-22T02:27:14.676Z,12.43
2019-01-22T02:29:50.469Z,14.17
2019-01-22T02:32:39.938Z,13.20
2019-01-22T02:35:31.046Z,13.03
2019-01-22T02:38:16.027Z,13.03
2019-01-22T02:40:47.318Z,12.27
2019-01-22T02:43:18.605Z,12.40
2019-01-22T02:46:11.906Z,14.17
2019-01-22T02:48:52.610Z,13.13
2019-01-22T02:51:48.071Z,12.87
2019-01-22T02:54:16.674Z,12.30
2019-01-22T02:57:08.092Z,14.50
2019-01-22T02:59:48.835Z,11.57
2019-01-22T03:02:32.258Z,13.27
2019-01-22T03:05:02.343Z,12.60
2019-01-22T03:07:35.118Z,13.50
2019-01-22T03:10:35.561Z,13.00
2019-01-22T03:13:10.249Z,12.93
2019-01-22T03:15:38.810Z,12.67
2019-01-22T03:18:37.729Z,13.37
2019-01-22T03:21:30.704Z,13.90
2019-01-22T03:23:59.200Z,12.93
2019-01-22T03:26:51.534Z,14.10
2019-01-22T03:29:25.867Z,14.70
2019-01-22T03:32:17.103Z,13.13
2019-01-22T03:34:48.494Z,12.40
2019-01-22T03:37:34.486Z,12.90
2019-01-22T03:40:07.281Z,13.93
2019-01-22T03:42:44.957Z,12.70
2019-01-22T03:45:30.189Z,13.40
2019-01-22T03:48:09.403Z,13.07
2019-01-22T03:50:44.058Z,14.00
2019-01-22T03:53:31.803Z,13.17
2019-01-22T03:56:00.336Z,13.97
2019-01-22T03:58:26.994Z,14.03
2019-01-22T04:00:55.769Z,14.40
2019-01-22T04:03:22.425Z,14.47
2019-01-22T04:05:49.174Z,13.13
2019-01-22T04:08:15.785Z,14.53
2019-01-22T04:10:42.350Z,13.90
2019-01-22T04:13:08.642Z,13.30
2019-01-22T04:15:36.033Z,13.10
2019-01-22T04:18:03.332Z,13.50
2019-01-22T04:20:29.946Z,13.03
2019-01-22T04:22:56.827Z,14.47
2019-01-22T04:25:31.377Z,15.13
2019-01-22T04:28:04.190Z,13.77
2019-01-22T04:30:32.701Z,13.53
2019-01-22T04:33:01.277Z,14.93
2019-01-22T04:35:34.382Z,14.17
2019-01-22T04:38:12.034Z,12.87
2019-01-22T04:40:43.545Z,14.13
2019-01-22T04:43:25.465Z,13.83
2019-01-22T04:45:53.987Z,13.93
2019-01-22T04:48:59.084Z,14.30
2019-01-22T04:51:30.346Z,11.60
2019-01-22T04:54:12.240Z,12.53
2019-01-22T04:56:48.299Z,12.40
2019-01-22T04:59:20.820Z,13.43
2019-01-22T05:02:04.636Z,15.40
2019-01-22T05:04:33.225Z,12.80
2019-01-22T05:07:01.743Z,12.70
2019-01-22T05:09:36.181Z,12.20
2019-01-22T05:12:13.707Z,11.67
2019-01-22T05:14:46.558Z,13.80
2019-01-22T05:17:22.746Z,12.50
2019-01-22T05:19:55.564Z,12.57
2019-01-22T05:22:42.015Z,13.27
2019-01-22T05:25:16.475Z,12.40
2019-01-22T05:28:03.362Z,12.10
2019-01-22T05:30:35.175Z,11.73
2019-01-22T05:33:15.728Z,13.57
2019-01-22T05:35:44.309Z,13.43
2019-01-22T05:38:29.381Z,12.00
2019-01-22T05:40:57.929Z,11.87
2019-01-22T05:43:38.449Z,13.70
2019-01-22T05:46:08.029Z,12.37
2019-01-22T05:48:38.088Z,12.87
2019-01-22T05:51:09.406Z,13.33
2019-01-22T05:54:07.834Z,14.40
2019-01-22T05:56:39.181Z,13.93
2019-01-22T05:59:19.809Z,13.17
2019-01-22T06:01:48.384Z,12.13
2019-01-22T06:04:36.308Z,11.43
2019-01-22T06:07:11.480Z,12.90
2019-01-22T06:09:45.851Z,11.90
2019-01-22T06:12:14.407Z,10.53
2019-01-22T06:14:46.421Z,11.70
2019-01-22T06:17:15.018Z,12.17
2019-01-22T06:19:43.550Z,11.97
2019-01-22T06:22:28.853Z,10.57
2019-01-22T06:25:06.252Z,11.17
2019-01-22T06:27:32.926Z,11.53
2019-01-22T06:30:07.321Z,10.63
2019-01-22T06:32:38.194Z,10.07
2019-01-22T06:35:09.761Z,10.07
2019-01-22T06:37:41.105Z,11.63
2019-01-22T06:40:09.679Z,11.63
2019-01-22T06:42:39.796Z,11.10
2019-01-22T06:45:14.178Z,10.37
2019-01-22T06:47:48.858Z,10.03
2019-01-22T06:50:20.465Z,9.93
2019-01-22T06:52:53.510Z,8.93
2019-01-22T06:55:34.104Z,10.60
2019-01-22T06:58:14.804Z,10.93
2019-01-22T07:00:59.783Z,10.37
2019-01-22T07:03:43.487Z,10.90
2019-01-22T07:06:29.948Z,11.10
2019-01-22T07:08:58.497Z,10.53
2019-01-22T07:11:37.653Z,10.30
2019-01-22T07:14:09.228Z,10.87
2019-01-22T07:16:42.081Z,10.93
2019-01-22T07:19:13.677Z,11.53
2019-01-22T07:21:52.601Z,11.93
2019-01-22T07:24:31.652Z,11.17
2019-01-22T07:27:13.689Z,10.97
2019-01-22T07:30:02.019Z,10.97
2019-01-22T07:32:47.241Z,10.70
2019-01-22T07:35:27.317Z,11.93
2019-01-22T07:38:09.395Z,11.83
2019-01-22T07:40:37.919Z,11.33
2019-01-22T07:43:06.426Z,12.33
2019-01-22T07:45:36.517Z,11.70
2019-01-22T07:48:06.557Z,11.90
2019-01-22T07:50:38.311Z,12.67
2019-01-22T07:53:12.661Z,11.97
2019-01-22T07:55:50.136Z,11.07
2019-01-22T07:58:18.671Z,10.37
2019-01-22T08:00:47.216Z,11.83
2019-01-22T08:03:52.484Z,12.20
2019-01-22T08:06:22.686Z,12.73
2019-01-22T08:09:07.878Z,12.00
2019-01-22T08:11:42.253Z,11.27
2019-01-22T08:14:41.250Z,11.13
2019-01-22T08:17:11.383Z,12.03
2019-01-22T08:19:56.576Z,11.13
2019-01-22T08:22:25.122Z,10.83
2019-01-22T08:25:25.498Z,10.63
2019-01-22T08:28:09.205Z,10.00
2019-01-22T08:30:54.356Z,10.30
2019-01-22T08:33:36.589Z,10.33
2019-01-22T08:36:27.686Z,10.83
2019-01-22T08:39:02.068Z,10.53
2019-01-22T08:41:30.580Z,11.13
2019-01-22T08:44:13.430Z,11.23
2019-01-22T08:46:41.959Z,12.27
2019-01-22T08:49:26.857Z,10.20
2019-01-22T08:51:58.221Z,10.67
2019-01-22T08:54:32.521Z,9.63
2019-01-22T08:57:19.237Z,10.03
2019-01-22T08:59:50.579Z,10.10
2019-01-22T09:02:28.468Z,11.07
2019-01-22T09:05:13.510Z,10.60
2019-01-22T09:07:52.469Z,11.57
2019-01-22T09:10:23.754Z,9.97
2019-01-22T09:13:16.195Z,10.53
2019-01-22T09:15:44.763Z,12.30
2019-01-22T09:18:17.658Z,10.40
2019-01-22T09:21:00.174Z,11.20
2019-01-22T09:23:39.318Z,11.30
2019-01-22T09:26:19.991Z,10.70
2019-01-22T09:28:57.401Z,11.20
2019-01-22T09:31:29.365Z,10.17
2019-01-22T09:34:16.817Z,10.50
2019-01-22T09:36:45.372Z,11.17
2019-01-22T09:39:12.302Z,10.70
2019-01-22T09:41:38.593Z,10.17
2019-01-22T09:44:04.958Z,10.67
2019-01-22T09:46:31.618Z,11.47
2019-01-22T09:48:58.244Z,11.87
2019-01-22T09:51:26.242Z,10.13
2019-01-22T09:53:52.863Z,11.23
2019-01-22T09:56:19.494Z,11.70
2019-01-22T09:58:46.185Z,12.47
2019-01-22T10:01:12.502Z,11.03
2019-01-22T10:03:39.153Z,13.00
2019-01-22T10:06:05.451Z,11.10
2019-01-22T10:08:32.480Z,11.60
2019-01-22T10:11:01.841Z,10.63
2019-01-22T10:13:27.204Z,11.27
2019-01-22T10:15:53.824Z,9.03
2019-01-22T10:18:20.466Z,11.20
2019-01-22T10:20:47.480Z,9.90
2019-01-22T10:23:14.197Z,10.40
2019-01-22T10:25:40.489Z,10.83
2019-01-22T10:28:07.338Z,11.57
2019-01-22T10:30:33.717Z,11.30
2019-01-22T10:33:00.011Z,9.93
2019-01-22T10:35:26.657Z,11.20
2019-01-22T10:37:53.052Z,10.10
2019-01-22T10:40:20.972Z,10.60
2019-01-22T10:42:47.611Z,10.80
2019-01-22T10:45:15.587Z,9.63
2019-01-22T10:47:44.546Z,10.03
2019-01-22T10:50:13.654Z,10.40
2019-01-22T10:52:40.310Z,11.97
2019-01-22T10:55:09.361Z,9.13
2019-01-22T10:57:35.634Z,9.63
2019-01-22T11:00:03.912Z,10.27
2019-01-22T11:02:30.147Z,9.40
2019-01-22T11:04:56.538Z,9.53
2019-01-22T11:07:23.422Z,8.60
2019-01-22T11:09:49.696Z,9.40
2019-01-22T11:12:16.312Z,10.13
2019-01-22T11:14:42.967Z,10.00
2019-01-22T11:17:09.591Z,9.23
2019-01-22T11:19:36.341Z,9.27
2019-01-22T11:22:02.803Z,10.97
2019-01-22T11:24:30.407Z,8.53
2019-01-22T11:26:57.282Z,8.83
2019-01-22T11:29:23.935Z,9.43
2019-01-22T11:31:51.349Z,8.53
2019-01-22T11:34:18.498Z,10.80
2019-01-22T11:36:45.873Z,10.83
2019-01-22T11:39:13.333Z,9.43
2019-01-22T11:41:39.565Z,8.87
2019-01-22T11:44:06.400Z,11.40
2019-01-22T11:46:33.012Z,10.53
2019-01-22T11:48:59.659Z,8.37
2019-01-22T11:51:26.291Z,10.17
2019-01-22T11:53:53.066Z,9.23
2019-01-22T11:56:20.704Z,8.37
2019-01-22T11:58:47.350Z,8.87
2019-01-22T12:01:13.985Z,10.10
2019-01-22T12:03:40.632Z,9.00
2019-01-22T12:06:07.171Z,8.20
2019-01-22T12:08:33.475Z,9.03
2019-01-22T12:11:00.352Z,9.43
2019-01-22T12:13:26.641Z,7.70
2019-01-22T12:15:53.218Z,8.10
2019-01-22T12:18:19.878Z,10.23
2019-01-22T12:20:46.688Z,9.00
2019-01-22T12:23:13.297Z,8.20
2019-01-22T12:25:39.930Z,9.03
2019-01-22T12:28:06.657Z,9.60
2019-01-22T12:30:34.620Z,8.00
2019-01-22T12:33:00.981Z,8.97
2019-01-22T12:35:27.636Z,8.03
2019-01-22T12:37:54.245Z,8.00
2019-01-22T12:40:23.200Z,8.30
2019-01-22T12:42:49.835Z,7.67
2019-01-22T12:45:17.786Z,7.77
2019-01-22T12:47:44.550Z,7.53
2019-01-22T12:50:13.560Z,8.03
2019-01-22T12:52:39.822Z,7.67
2019-01-22T12:55:09.613Z,8.10
2019-01-22T12:57:36.138Z,8.10
2019-01-22T13:00:04.701Z,7.00
2019-01-22T13:02:31.418Z,7.30
2019-01-22T13:04:58.025Z,11.40
2019-01-22T13:07:24.690Z,10.20
2019-01-22T13:09:51.327Z,8.47
2019-01-22T13:12:17.947Z,7.33
2019-01-22T13:14:44.541Z,8.00
2019-01-22T13:17:11.174Z,10.53
2019-01-22T13:19:37.813Z,8.27
2019-01-22T13:22:04.546Z,8.03
2019-01-22T13:24:31.197Z,7.53
2019-01-22T13:26:57.729Z,8.53
2019-01-22T13:29:24.019Z,7.40
2019-01-22T13:31:50.282Z,7.37
2019-01-22T13:34:18.138Z,8.10
2019-01-22T13:36:44.442Z,6.97
2019-01-22T13:39:11.649Z,11.75
2019-01-22T13:41:38.281Z,10.23
2019-01-22T13:44:05.633Z,8.83
2019-01-22T13:46:32.270Z,8.63
2019-01-22T13:48:58.915Z,12.25
2019-01-22T13:51:25.245Z,12.33
2019-01-22T13:53:51.849Z,9.43
2019-01-22T13:56:18.876Z,8.37
2019-01-22T13:58:45.505Z,9.07
2019-01-22T14:01:12.235Z,8.17
2019-01-22T14:03:39.322Z,8.50
2019-01-22T14:06:06.458Z,9.63
2019-01-22T14:08:33.085Z,10.07
2019-01-22T14:10:59.746Z,10.00
2019-01-22T14:13:26.022Z,9.67
2019-01-22T14:15:52.766Z,10.80
2019-01-22T14:18:19.038Z,9.30
2019-01-22T14:20:46.194Z,11.88
2019-01-22T14:23:12.807Z,10.57
2019-01-22T14:25:39.190Z,9.23
2019-01-22T14:28:06.077Z,9.05
2019-01-22T14:30:37.681Z,12.88
2019-01-22T14:33:04.549Z,11.30
2019-01-22T14:35:31.202Z,10.73
2019-01-22T14:37:57.826Z,13.50
2019-01-22T14:40:24.446Z,15.95
2019-01-22T14:42:51.161Z,13.67
2019-01-22T14:45:18.606Z,11.33
2019-01-22T14:47:45.327Z,10.33
2019-01-22T14:50:19.193Z,10.53
2019-01-22T14:52:45.782Z,9.80
2019-01-22T14:55:12.506Z,10.43
2019-01-22T14:57:39.217Z,9.70
2019-01-22T15:00:07.841Z,13.88
2019-01-22T15:02:34.489Z,17.73
2019-01-22T15:05:01.549Z,13.70
2019-01-22T15:07:28.233Z,11.87
2019-01-22T15:09:54.850Z,12.40
2019-01-22T15:12:21.486Z,13.27
2019-01-22T15:14:47.752Z,17.40
2019-01-22T15:17:15.005Z,13.80
2019-01-22T15:19:41.378Z,13.23
2019-01-22T15:22:08.018Z,11.33
2019-01-22T15:24:34.279Z,11.70
2019-01-22T15:27:00.554Z,11.30
2019-01-22T15:29:27.177Z,14.47
2019-01-22T15:31:53.817Z,12.40
2019-01-22T15:34:20.186Z,12.23
2019-01-22T15:36:46.845Z,10.77
2019-01-22T15:39:13.456Z,10.70
2019-01-22T15:41:41.222Z,11.17
2019-01-22T15:44:11.097Z,10.83
2019-01-22T15:46:37.764Z,11.90
2019-01-22T15:49:04.382Z,11.30
2019-01-22T15:51:31.031Z,11.90
2019-01-22T15:53:58.133Z,11.93
2019-01-22T15:56:24.781Z,11.77
2019-01-22T15:58:51.410Z,12.53
2019-01-22T16:01:18.128Z,42.30
2019-01-22T16:03:44.733Z,27.17
2019-01-22T16:06:11.368Z,17.43
2019-01-22T16:08:37.990Z,14.03
2019-01-22T16:11:04.605Z,14.00
2019-01-22T16:13:31.249Z,11.50
2019-01-22T16:15:57.881Z,12.20
2019-01-22T16:18:24.189Z,11.90
2019-01-22T16:20:50.811Z,13.13
2019-01-22T16:23:17.437Z,13.63
2019-01-22T16:25:43.698Z,12.73
2019-01-22T16:28:10.339Z,12.70
2019-01-22T16:30:37.119Z,12.67
2019-01-22T16:33:03.759Z,11.97
2019-01-22T16:35:30.126Z,16.30
2019-01-22T16:37:56.713Z,14.80
2019-01-22T16:40:23.353Z,13.97
2019-01-22T16:42:50.001Z,13.13
2019-01-22T16:45:27.747Z,11.27
2019-01-22T16:47:54.411Z,11.93
2019-01-22T16:50:21.295Z,13.67
2019-01-22T16:52:48.024Z,11.40
2019-01-22T16:55:20.283Z,13.03
2019-01-22T16:57:47.700Z,12.93
2019-01-22T17:00:15.929Z,12.93
2019-01-22T17:02:42.565Z,11.93
2019-01-22T17:05:09.295Z,12.37
2019-01-22T17:07:35.985Z,12.27
2019-01-22T17:10:04.497Z,11.97
2019-01-22T17:12:30.785Z,11.73
2019-01-22T17:14:57.397Z,12.03
2019-01-22T17:17:23.689Z,14.63
2019-01-22T17:19:53.117Z,11.93
2019-01-22T17:22:19.754Z,13.07
2019-01-22T17:24:46.003Z,12.37
2019-01-22T17:27:12.633Z,12.63
2019-01-22T17:29:39.257Z,13.03
2019-01-22T17:32:07.521Z,11.70
2019-01-22T17:34:35.842Z,12.30
2019-01-22T17:37:02.233Z,12.67
2019-01-22T17:39:28.901Z,12.03
2019-01-22T17:41:55.514Z,12.77
2019-01-22T17:44:22.161Z,12.17
2019-01-22T17:46:48.397Z,12.20
2019-01-22T17:49:15.061Z,11.67
2019-01-22T17:51:41.693Z,12.07
2019-01-22T17:54:08.352Z,12.33
2019-01-22T17:56:35.278Z,11.27
2019-01-22T17:59:01.950Z,17.17
2019-01-22T18:01:28.573Z,12.93
2019-01-22T18:03:57.514Z,11.77
2019-01-22T18:06:23.802Z,12.23
2019-01-22T18:08:50.445Z,11.50
2019-01-22T18:11:17.062Z,11.73
2019-01-22T18:13:43.335Z,12.97
2019-01-22T18:16:09.957Z,12.53
2019-01-22T18:18:36.590Z,12.87
2019-01-22T18:21:03.211Z,13.80
2019-01-22T18:23:29.509Z,15.43
2019-01-22T18:25:56.369Z,12.73
2019-01-22T18:28:23.022Z,10.73
2019-01-22T18:30:49.375Z,12.53
2019-01-22T18:33:16.025Z,12.73
2019-01-22T18:35:42.399Z,12.80
2019-01-22T18:38:08.889Z,11.93
2019-01-22T18:40:35.514Z,11.77
2019-01-22T18:43:02.134Z,13.30
2019-01-22T18:45:28.850Z,11.93
2019-01-22T18:47:55.464Z,13.10
2019-01-22T18:50:23.358Z,11.63
2019-01-22T18:52:50.320Z,12.23
2019-01-22T18:55:18.100Z,11.97
2019-01-22T18:57:44.738Z,10.63
2019-01-22T19:00:19.185Z,11.87
2019-01-22T19:02:45.772Z,12.63
2019-01-22T19:05:12.509Z,13.47
2019-01-22T19:07:38.777Z,14.27
2019-01-22T19:10:08.781Z,11.90
2019-01-22T19:12:35.392Z,12.40
2019-01-22T19:15:03.428Z,13.90
2019-01-22T19:17:29.717Z,12.83
2019-01-22T19:19:56.360Z,11.87
2019-01-22T19:22:22.891Z,13.80
2019-01-22T19:24:49.173Z,14.43
2019-01-22T19:27:15.792Z,12.53
2019-01-22T19:29:42.081Z,13.37
2019-01-22T19:32:08.710Z,13.57
2019-01-22T19:34:35.345Z,14.47
2019-01-22T19:37:01.968Z,16.47
2019-01-22T19:39:28.598Z,13.97
2019-01-22T19:41:55.210Z,11.53
2019-01-22T19:44:21.726Z,12.63
2019-01-22T19:46:48.338Z,13.30
2019-01-22T19:49:15.442Z,12.93
2019-01-22T19:51:42.034Z,13.03
2019-01-22T19:54:08.790Z,12.70
2019-01-22T19:56:35.030Z,17.12
2019-01-22T19:59:02.093Z,15.37
2019-01-22T20:01:28.718Z,14.57
2019-01-22T20:03:55.326Z,13.87
2019-01-22T20:06:22.009Z,12.23
2019-01-22T20:08:48.282Z,11.97
2019-01-22T20:11:15.030Z,14.43
2019-01-22T20:13:43.045Z,12.67
2019-01-22T20:16:09.327Z,11.80
2019-01-22T20:18:35.591Z,15.37
2019-01-22T20:21:02.339Z,13.27
2019-01-22T20:23:28.601Z,12.40
2019-01-22T20:25:55.255Z,13.80
2019-01-22T20:28:21.870Z,11.77
2019-01-22T20:30:48.627Z,11.03
2019-01-22T20:33:15.196Z,11.67
2019-01-22T20:35:41.480Z,12.00
2019-01-22T20:38:08.089Z,15.13
2019-01-22T20:40:34.471Z,12.60
2019-01-22T20:43:01.200Z,11.77
2019-01-22T20:45:29.181Z,12.57
2019-01-22T20:47:55.802Z,12.87
2019-01-22T20:50:24.030Z,12.07
2019-01-22T20:52:50.303Z,12.30
2019-01-22T20:55:19.062Z,12.60
2019-01-22T20:57:45.698Z,11.43
2019-01-22T21:00:13.555Z,11.57
2019-01-22T21:02:40.165Z,14.40
2019-01-22T21:05:08.730Z,12.03
2019-01-22T21:07:35.583Z,12.60
2019-01-22T21:10:04.121Z,10.93
2019-01-22T21:12:30.750Z,12.23
2019-01-22T21:14:57.022Z,11.97
2019-01-22T21:17:23.673Z,14.57
2019-01-22T21:19:52.254Z,13.63
2019-01-22T21:22:19.915Z,13.80
2019-01-22T21:24:47.761Z,16.23
2019-01-22T21:27:14.384Z,13.50
2019-01-22T21:29:41.001Z,19.62
2019-01-22T21:32:07.642Z,15.83
2019-01-22T21:34:33.909Z,15.00
2019-01-22T21:37:00.209Z,13.83
2019-01-22T21:39:26.928Z,12.17
2019-01-22T21:41:53.573Z,13.43
2019-01-22T21:44:20.314Z,14.07
2019-01-22T21:46:47.062Z,14.17
2019-01-22T21:49:13.939Z,12.23
2019-01-22T21:51:40.581Z,11.90
2019-01-22T21:54:07.200Z,12.17
2019-01-22T21:56:33.860Z,11.80
2019-01-22T21:59:00.485Z,11.93
2019-01-22T22:01:27.240Z,11.57
2019-01-22T22:03:53.532Z,13.03
2019-01-22T22:06:19.802Z,12.17
2019-01-22T22:08:46.726Z,10.83
2019-01-22T22:11:13.012Z,11.63
2019-01-22T22:13:39.642Z,11.30
2019-01-22T22:16:06.556Z,10.40
2019-01-22T22:18:33.176Z,11.40
2019-01-22T22:20:59.801Z,10.27
2019-01-22T22:23:26.185Z,11.43
2019-01-22T22:25:52.559Z,11.40
2019-01-22T22:28:19.583Z,11.90
2019-01-22T22:30:45.840Z,12.57
2019-01-22T22:33:12.133Z,11.20
2019-01-22T22:35:38.863Z,12.20
2019-01-22T22:38:05.520Z,11.77
2019-01-22T22:40:31.778Z,11.73
2019-01-22T22:42:58.056Z,15.13
2019-01-22T22:45:24.781Z,14.23
2019-01-22T22:47:51.569Z,11.93
2019-01-22T22:50:20.099Z,12.80
2019-01-22T22:52:46.673Z,12.37
2019-01-22T22:55:13.281Z,13.27
2019-01-22T22:57:39.686Z,12.57
2019-01-22T23:00:14.237Z,13.07
2019-01-22T23:02:40.909Z,11.67
2019-01-22T23:05:07.529Z,11.47
2019-01-22T23:07:34.171Z,11.97
2019-01-22T23:10:00.429Z,10.77
2019-01-22T23:12:26.681Z,11.13
2019-01-22T23:14:53.317Z,12.50
2019-01-22T23:17:19.582Z,10.33
2019-01-22T23:19:46.497Z,11.27
2019-01-22T23:22:13.124Z,11.67
2019-01-22T23:24:39.773Z,12.60
2019-01-22T23:27:06.128Z,11.83
2019-01-22T23:29:32.446Z,11.13
2019-01-22T23:31:59.200Z,11.70
2019-01-22T23:34:25.724Z,11.10
2019-01-22T23:36:51.965Z,10.57
2019-01-22T23:39:18.270Z,10.33
2019-01-22T23:41:44.977Z,12.03
2019-01-22T23:44:11.641Z,11.10
2019-01-22T23:46:37.891Z,10.73
2019-01-22T23:49:04.146Z,10.00
2019-01-22T23:51:30.445Z,10.13
2019-01-22T23:53:56.705Z,11.67
2019-01-22T23:56:23.502Z,10.70
2019-01-22T23:58:50.149Z,11.10
